PACD Airport Information

Runway Information
Runway 08 Length 4235 ft width 150 ft
Elevation 93 ft Threshold 0 ft Heading 95
Runway 26 Length 4235 ft Width 150 ft
Elevation 96 ft Threshold 0 ft Heading 275
Runway 14 Length 10415 ft width 150 ft
Elevation 69 ft Threshold 0 ft Heading 158
Runway 32 Length 10415 ft Width 150 ft
Elevation 89 ft Threshold 0 ft Heading 338
Airport Frequencies
Type ASOS Name ASOS Frequency 135.75 MHZ
Type CNTR Name ANCHORAGE Frequency 118.5 MHZ
Type CTAF Name CTAF Frequency 123.6 MHZ
Type FSS Name RDO Frequency 123.6 MHZ
Type RFSS Name KENAI RDO Frequency 123.6 MHZ
Airport Navaids
Type NDB Name Elfee Frequency 341 KHZ
Type VORTAC Name Cold Bay Frequency 112600 KHZ
Airport Weather Information & NOTAM
ADDS - METARS form results

(2008 UTC 18 January 2019)
Data provider http://aviationweather.gov/metar/data/
 
METAR text: PACD 182003Z AUTO 36019KT 2SM -SN BR SCT006 BKN014 OVC025 00/M01 A2976 RMK AO2 UPB1954E00SNE1954B00 P0000 T00001006 TSNO
Conditions at: PACD (COLD BAY , AK, US) observed 2003 UTC 18 January 2019
Temperature: 0.0°C (32°F)
Dewpoint: -0.6°C (31°F) [RH = 96%]
Pressure (altimeter): 29.76 inches Hg (1007.9 mb)
Winds: from the N (360 degrees) at 22 MPH (19 knots; 9.8 m/s)
Visibility: 2.00 miles (3.22 km)
Ceiling: 1400 feet AGL
Clouds: scattered clouds at 600 feet AGL
broken clouds at 1400 feet AGL
overcast cloud deck at 2500 feet AGL
Weather: -SN BR  (light snow, mist)

METAR text: PACD 181953Z AUTO 36019KT 3SM -SN BR SCT006 BKN010 OVC026 00/M01 A2976 RMK AO2 UPB08E16B40E45SNE08B20E40B53 SLP078 P0000 I1000 T00001006 TSNO
Conditions at: PACD (COLD BAY , AK, US) observed 1953 UTC 18 January 2019
Temperature: 0.0°C (32°F)
Dewpoint: -0.6°C (31°F) [RH = 96%]
Pressure (altimeter): 29.76 inches Hg (1007.9 mb)
[Sea-level pressure: 1007.8 mb]
Winds: from the N (360 degrees) at 22 MPH (19 knots; 9.8 m/s)
Visibility: 3 miles ( 5 km)
Ceiling: 1000 feet AGL
Clouds: scattered clouds at 600 feet AGL
broken clouds at 1000 feet AGL
overcast cloud deck at 2600 feet AGL
Weather: -SN BR  (light snow, mist)

METAR text: PACD 181938Z AUTO 36020KT 3SM -SN BR BKN007 OVC024 00/M01 A2976 RMK AO2 UPB08E16SNE08B20 P0000 I1000 T00001006 TSNO
Conditions at: PACD (COLD BAY , AK, US) observed 1938 UTC 18 January 2019
Temperature: 0.0°C (32°F)
Dewpoint: -0.6°C (31°F) [RH = 96%]
Pressure (altimeter): 29.76 inches Hg (1007.9 mb)
Winds: from the N (360 degrees) at 23 MPH (20 knots; 10.3 m/s)
Visibility: 3 miles ( 5 km)
Ceiling: 700 feet AGL
Clouds: broken clouds at 700 feet AGL
overcast cloud deck at 2400 feet AGL
Weather: -SN BR  (light snow, mist)

METAR text: PACD 181927Z AUTO 36021KT 1 3/4SM -SN BR OVC006 00/M01 A2976 RMK AO2 UPB08E16SNE08B20 P0000 I1000 T00001006 TSNO
Conditions at: PACD (COLD BAY , AK, US) observed 1927 UTC 18 January 2019
Temperature: 0.0°C (32°F)
Dewpoint: -0.6°C (31°F) [RH = 96%]
Pressure (altimeter): 29.76 inches Hg (1007.9 mb)
Winds: from the N (360 degrees) at 24 MPH (21 knots; 10.8 m/s)
Visibility: 1.75 miles (2.82 km)
Ceiling: 600 feet AGL
Clouds: overcast cloud deck at 600 feet AGL
Weather: -SN BR  (light snow, mist)

Forecast for: PACD (COLD BAY , AK, US)
Text: PACD 182001Z 1820/1918 36018G26KT 6SM -SHSN SCT010 OVC025
Forecast period: 2000 UTC 18 January 2019 to 0000 UTC 19 January 2019
Forecast type: FROM: standard forecast or significant change
Winds: from the N (360 degrees) at 21 MPH (18 knots; 9.3 m/s)
gusting to 30 MPH (26 knots; 13.4 m/s)
Visibility: 6 miles (10 km)
Ceiling: 2500 feet AGL
Clouds: scattered clouds at 1000 feet AGL
overcast cloud deck at 2500 feet AGL
Weather: -SHSN  (light snow showers)
Text: TEMPO 1820/1824 3SM -SHSN BKN010
Forecast period: 2000 UTC 18 January 2019 to 0000 UTC 19 January 2019
Forecast type: TEMPORARY: The following changes expected for less than half the time period
Visibility: 3 miles (5 km)
Ceiling: 1000 feet AGL
Clouds: broken clouds at 1000 feet AGL
Weather: -SHSN  (light snow showers)
Text: FM190000 35022G30KT P6SM VCSH OVC009
Forecast period: 0000 to 0500 UTC 19 January 2019
Forecast type: FROM: standard forecast or significant change
Winds: from the N (350 degrees) at 25 MPH (22 knots; 11.3 m/s)
gusting to 34 MPH (30 knots; 15.4 m/s)
Visibility: 6 or more miles 10+ km)
Ceiling: 900 feet AGL
Clouds: overcast cloud deck at 900 feet AGL
Weather: VCSH  (showers in vicinity)
Text: FM190500 01018KT P6SM VCSH OVC019
Forecast period: 0500 to 1300 UTC 19 January 2019
Forecast type: FROM: standard forecast or significant change
Winds: from the N (10 degrees) at 21 MPH (18 knots; 9.3 m/s)
Visibility: 6 or more miles 10+ km)
Ceiling: 1900 feet AGL
Clouds: overcast cloud deck at 1900 feet AGL
Weather: VCSH  (showers in vicinity)
Text: FM191300 02016KT P6SM FEW019 SCT050
Forecast period: 1300 to 1800 UTC 19 January 2019
Forecast type: FROM: standard forecast or significant change
Winds: from the NNE (20 degrees) at 18 MPH (16 knots; 8.2 m/s)
Visibility: 6 or more miles 10+ km)
Ceiling: at least 12,000 feet AGL
Clouds: few clouds at 1900 feet AGL
scattered clouds at 5000 feet AGL
Weather: no significant weather forecast for this period